createdAt,value
2022-09-24T00:01:12.711Z,19.80
2022-09-24T00:03:43.666Z,19.80
2022-09-24T00:06:10.327Z,19.80
2022-09-24T00:08:36.926Z,19.80
2022-09-24T00:11:05.538Z,20.30
2022-09-24T00:13:32.726Z,19.70
2022-09-24T00:16:02.430Z,19.90
2022-09-24T00:18:29.219Z,19.70
2022-09-24T00:20:55.834Z,19.70
2022-09-24T00:23:22.579Z,19.70
2022-09-24T00:26:07.768Z,19.70
2022-09-24T00:28:34.440Z,19.70
2022-09-24T00:31:07.056Z,19.70
2022-09-24T00:33:34.549Z,19.70
2022-09-24T00:36:02.369Z,19.70
2022-09-24T00:38:29.622Z,19.70
2022-09-24T00:40:56.276Z,19.70
2022-09-24T00:43:24.276Z,20.20
2022-09-24T00:45:52.864Z,19.70
2022-09-24T00:48:19.574Z,20.10
2022-09-24T00:50:46.403Z,19.70
2022-09-24T00:53:15.065Z,19.70
2022-09-24T00:55:43.660Z,19.70
2022-09-24T00:58:10.852Z,21.00
2022-09-24T01:00:39.096Z,19.70
2022-09-24T01:03:07.817Z,19.40
2022-09-24T01:05:35.526Z,19.70
2022-09-24T01:08:02.327Z,19.70
2022-09-24T01:10:58.422Z,19.70
2022-09-24T01:13:30.935Z,19.70
2022-09-24T01:16:06.596Z,19.70
2022-09-24T01:18:41.110Z,19.60
2022-09-24T01:21:10.572Z,19.70
2022-09-24T01:23:37.171Z,19.60
2022-09-24T01:26:19.130Z,19.60
2022-09-24T01:28:52.421Z,19.70
2022-09-24T01:31:46.915Z,19.60
2022-09-24T01:34:15.663Z,19.60
2022-09-24T01:36:42.854Z,19.70
2022-09-24T01:39:10.185Z,19.60
2022-09-24T01:41:38.555Z,19.70
2022-09-24T01:44:07.939Z,19.60
2022-09-24T01:46:38.074Z,19.60
2022-09-24T01:49:06.979Z,19.60
2022-09-24T01:51:38.115Z,19.60
2022-09-24T01:54:12.264Z,19.60
2022-09-24T01:56:42.051Z,19.60
2022-09-24T01:59:22.575Z,20.40
2022-09-24T02:02:01.699Z,19.60
2022-09-24T02:04:30.022Z,19.60
2022-09-24T02:07:16.465Z,19.60
2022-09-24T02:09:43.770Z,19.60
2022-09-24T02:12:11.847Z,19.60
2022-09-24T02:14:45.356Z,19.60
2022-09-24T02:17:12.440Z,19.60
2022-09-24T02:19:40.887Z,21.20
2022-09-24T02:22:09.457Z,19.60
2022-09-24T02:24:50.091Z,19.60
2022-09-24T02:27:17.584Z,19.60
2022-09-24T02:29:44.485Z,19.60
2022-09-24T02:32:13.811Z,19.60
2022-09-24T02:34:44.205Z,19.60
2022-09-24T02:37:12.076Z,19.60
2022-09-24T02:39:38.717Z,19.60
2022-09-24T02:42:06.072Z,19.60
2022-09-24T02:44:33.288Z,19.60
2022-09-24T02:47:00.048Z,19.60
2022-09-24T02:49:26.929Z,19.60
2022-09-24T02:51:53.680Z,20.30
2022-09-24T02:54:20.423Z,19.60
2022-09-24T02:56:47.063Z,20.70
2022-09-24T02:59:13.740Z,19.60
2022-09-24T03:01:40.614Z,19.50
2022-09-24T03:04:07.468Z,19.60
2022-09-24T03:06:34.470Z,19.60
2022-09-24T03:09:03.218Z,19.60
2022-09-24T03:11:31.484Z,19.50
2022-09-24T03:13:58.109Z,19.50
2022-09-24T03:16:24.783Z,19.50
2022-09-24T03:18:51.475Z,19.50
2022-09-24T03:21:19.179Z,19.50
2022-09-24T03:23:45.926Z,19.50
2022-09-24T03:26:12.560Z,19.50
2022-09-24T03:28:39.187Z,19.50
2022-09-24T03:31:06.338Z,19.60
2022-09-24T03:33:34.419Z,19.50
2022-09-24T03:36:03.084Z,19.60
2022-09-24T03:38:30.314Z,19.50
2022-09-24T03:40:57.601Z,19.50
2022-09-24T03:43:24.367Z,19.50
2022-09-24T03:45:51.071Z,19.50
2022-09-24T03:48:18.508Z,19.50
2022-09-24T03:50:46.115Z,19.50
2022-09-24T03:53:13.292Z,19.50
2022-09-24T03:55:47.346Z,19.60
2022-09-24T03:58:15.091Z,19.60
2022-09-24T04:00:42.464Z,19.60
2022-09-24T04:03:09.492Z,19.60
2022-09-24T04:05:36.302Z,19.70
2022-09-24T04:08:03.541Z,19.70
2022-09-24T04:10:30.204Z,19.70
2022-09-24T04:12:57.090Z,19.70
2022-09-24T04:15:23.947Z,21.40
2022-09-24T04:17:54.477Z,19.70
2022-09-24T04:20:22.751Z,19.70
2022-09-24T04:22:50.223Z,19.80
2022-09-24T04:25:17.306Z,19.90
2022-09-24T04:27:44.312Z,19.90
2022-09-24T04:30:14.522Z,20.00
2022-09-24T04:32:41.742Z,20.00
2022-09-24T04:35:08.917Z,20.00
2022-09-24T04:37:35.809Z,20.00
2022-09-24T04:40:04.378Z,20.00
2022-09-24T04:42:31.163Z,20.00
2022-09-24T04:44:57.838Z,20.00
2022-09-24T04:47:25.963Z,20.00
2022-09-24T04:49:52.610Z,20.00
2022-09-24T04:52:19.266Z,20.00
2022-09-24T04:54:47.541Z,20.00
2022-09-24T04:57:14.800Z,19.90
2022-09-24T04:59:41.587Z,19.90
2022-09-24T05:02:09.854Z,19.90
2022-09-24T05:04:37.351Z,20.00
2022-09-24T05:07:04.520Z,19.90
2022-09-24T05:09:33.863Z,19.90
2022-09-24T05:12:00.743Z,19.90
2022-09-24T05:14:27.640Z,19.90
2022-09-24T05:16:54.424Z,19.90
2022-09-24T05:19:21.082Z,19.90
2022-09-24T05:21:47.924Z,19.90
2022-09-24T05:24:14.663Z,19.90
2022-09-24T05:27:00.101Z,19.90
2022-09-24T05:29:26.874Z,19.90
2022-09-24T05:31:53.529Z,20.00
2022-09-24T05:34:20.518Z,19.90
2022-09-24T05:36:47.334Z,19.90
2022-09-24T05:39:14.279Z,19.90
2022-09-24T05:41:41.236Z,20.00
2022-09-24T05:44:08.136Z,19.90
2022-09-24T05:46:35.635Z,19.90
2022-09-24T05:49:02.460Z,20.00
2022-09-24T05:51:29.126Z,20.40
2022-09-24T05:53:55.785Z,19.90
2022-09-24T05:56:31.556Z,19.90
2022-09-24T05:58:58.203Z,19.90
2022-09-24T06:01:25.025Z,19.90
2022-09-24T06:03:51.705Z,19.90
2022-09-24T06:06:18.325Z,20.00
2022-09-24T06:08:44.934Z,20.00
2022-09-24T06:11:13.185Z,20.60
2022-09-24T06:13:40.509Z,20.20
2022-09-24T06:16:09.047Z,19.90
2022-09-24T06:18:40.169Z,19.90
2022-09-24T06:21:08.195Z,20.00
2022-09-24T06:23:35.355Z,20.00
2022-09-24T06:26:02.609Z,20.10
2022-09-24T06:28:29.398Z,19.90
2022-09-24T06:30:56.078Z,20.00
2022-09-24T06:33:23.586Z,20.00
2022-09-24T06:35:50.406Z,19.90
2022-09-24T06:38:18.326Z,21.50
2022-09-24T06:40:45.819Z,20.00
2022-09-24T06:43:13.481Z,20.10
2022-09-24T06:45:42.774Z,19.90
2022-09-24T06:48:10.519Z,19.90
2022-09-24T06:50:39.201Z,20.00
2022-09-24T06:53:12.655Z,19.90
2022-09-24T06:55:39.595Z,19.90
2022-09-24T06:58:07.360Z,19.90
2022-09-24T07:00:34.420Z,20.00
2022-09-24T07:03:01.130Z,19.90
2022-09-24T07:05:27.793Z,20.00
2022-09-24T07:07:54.417Z,19.90
2022-09-24T07:10:22.451Z,19.90
2022-09-24T07:12:49.247Z,19.90
2022-09-24T07:15:15.891Z,19.90
2022-09-24T07:17:42.497Z,19.90
2022-09-24T07:20:09.307Z,20.40
2022-09-24T07:22:40.243Z,20.00
2022-09-24T07:25:10.989Z,19.90
2022-09-24T07:27:38.209Z,19.90
2022-09-24T07:30:09.145Z,19.90
2022-09-24T07:32:36.035Z,19.90
2022-09-24T07:35:02.870Z,19.90
2022-09-24T07:37:32.596Z,19.90
2022-09-24T07:39:59.347Z,19.90
2022-09-24T07:42:26.213Z,19.90
2022-09-24T07:44:52.794Z,19.90
2022-09-24T07:47:19.409Z,20.80
2022-09-24T07:49:46.006Z,19.90
2022-09-24T07:52:12.661Z,19.90
2022-09-24T07:54:39.245Z,19.90
2022-09-24T07:57:15.040Z,19.90
2022-09-24T07:59:41.964Z,19.90
2022-09-24T08:02:16.286Z,19.90
2022-09-24T08:04:43.371Z,20.00
2022-09-24T08:07:10.460Z,20.00
2022-09-24T08:09:37.164Z,19.90
2022-09-24T08:12:04.453Z,20.00
2022-09-24T08:14:31.125Z,20.00
2022-09-24T08:16:57.754Z,20.00
2022-09-24T08:19:24.422Z,20.00
2022-09-24T08:21:51.018Z,20.00
2022-09-24T08:24:17.654Z,20.00
2022-09-24T08:26:44.264Z,20.10
2022-09-24T08:29:11.006Z,20.10
2022-09-24T08:31:37.672Z,20.20
2022-09-24T08:34:04.508Z,20.20
2022-09-24T08:36:31.273Z,19.30
2022-09-24T08:38:57.927Z,20.30
2022-09-24T08:41:47.364Z,20.30
2022-09-24T08:44:38.431Z,20.30
2022-09-24T08:47:31.502Z,20.20
2022-09-24T08:50:02.138Z,20.20
2022-09-24T08:52:49.516Z,20.20
2022-09-24T08:55:25.855Z,20.20
2022-09-24T08:57:56.116Z,20.20
2022-09-24T09:00:22.826Z,20.20
2022-09-24T09:02:49.508Z,20.20
2022-09-24T09:05:30.531Z,19.10
2022-09-24T09:08:27.556Z,20.20
2022-09-24T09:11:03.040Z,20.20
2022-09-24T09:13:36.299Z,20.20
2022-09-24T09:16:10.199Z,20.20
2022-09-24T09:18:41.944Z,20.10
2022-09-24T09:21:22.255Z,20.10
2022-09-24T09:23:49.640Z,20.10
2022-09-24T09:26:18.322Z,20.10
2022-09-24T09:28:45.920Z,20.20
2022-09-24T09:31:20.567Z,20.10
2022-09-24T09:33:59.810Z,20.10
2022-09-24T09:36:42.507Z,20.10
2022-09-24T09:39:09.126Z,20.10
2022-09-24T09:41:45.392Z,20.10
2022-09-24T09:44:15.503Z,20.10
2022-09-24T09:46:45.260Z,20.00
2022-09-24T09:49:13.349Z,20.10
2022-09-24T09:51:42.058Z,20.10
2022-09-24T09:54:08.993Z,20.10
2022-09-24T09:56:43.641Z,20.10
2022-09-24T09:59:13.344Z,20.10
2022-09-24T10:01:41.465Z,20.10
2022-09-24T10:04:26.905Z,20.20
2022-09-24T10:07:03.317Z,20.10
2022-09-24T10:09:30.007Z,20.10
2022-09-24T10:12:06.096Z,20.10
2022-09-24T10:14:33.019Z,20.10
2022-09-24T10:17:05.291Z,20.10
2022-09-24T10:19:34.212Z,20.10
2022-09-24T10:22:08.271Z,20.10
2022-09-24T10:24:36.147Z,20.10
2022-09-24T10:27:10.576Z,20.10
2022-09-24T10:29:55.947Z,20.10
2022-09-24T10:32:23.778Z,20.10
2022-09-24T10:35:01.131Z,20.10
2022-09-24T10:37:28.483Z,20.20
2022-09-24T10:40:02.417Z,20.10
2022-09-24T10:42:30.098Z,20.10
2022-09-24T10:45:01.004Z,20.10
2022-09-24T10:47:39.985Z,20.10
2022-09-24T10:50:26.007Z,20.10
2022-09-24T10:52:52.666Z,20.10
2022-09-24T10:55:19.315Z,20.60
2022-09-24T10:57:55.617Z,20.20
2022-09-24T11:00:23.574Z,20.10
2022-09-24T11:03:08.812Z,20.20
2022-09-24T11:05:44.871Z,20.20
2022-09-24T11:08:34.911Z,20.10
2022-09-24T11:11:14.411Z,20.10
2022-09-24T11:13:51.194Z,20.10
2022-09-24T11:16:39.076Z,20.10
2022-09-24T11:19:23.839Z,20.20
2022-09-24T11:22:13.077Z,20.20
2022-09-24T11:24:56.058Z,20.20
2022-09-24T11:27:22.663Z,20.20
2022-09-24T11:30:04.461Z,20.20
2022-09-24T11:32:34.155Z,20.10
2022-09-24T11:35:07.631Z,20.10
2022-09-24T11:37:53.494Z,20.20
2022-09-24T11:40:36.379Z,20.20
2022-09-24T11:43:16.594Z,20.20
2022-09-24T11:45:43.195Z,20.20
2022-09-24T11:48:28.599Z,20.20
2022-09-24T11:51:03.045Z,20.20
2022-09-24T11:53:43.908Z,20.10
2022-09-24T11:56:17.363Z,20.20
2022-09-24T11:58:47.013Z,20.20
2022-09-24T12:01:33.008Z,20.40
2022-09-24T12:04:16.251Z,20.20
2022-09-24T12:06:43.153Z,20.20
2022-09-24T12:09:16.068Z,20.20
2022-09-24T12:11:47.534Z,20.20
2022-09-24T12:14:15.120Z,20.20
2022-09-24T12:16:44.440Z,20.20
2022-09-24T12:19:14.250Z,20.20
2022-09-24T12:21:43.153Z,20.20
2022-09-24T12:24:16.889Z,20.20
2022-09-24T12:26:45.227Z,20.20
2022-09-24T12:29:33.559Z,20.20
2022-09-24T12:32:24.546Z,20.20
2022-09-24T12:34:56.584Z,20.20
2022-09-24T12:37:25.258Z,20.20
2022-09-24T12:40:08.807Z,20.20
2022-09-24T12:42:47.333Z,20.20
2022-09-24T12:45:16.015Z,20.20
2022-09-24T12:47:47.325Z,20.20
2022-09-24T12:50:21.887Z,20.20
2022-09-24T12:52:48.630Z,20.20
2022-09-24T12:55:24.565Z,20.20
2022-09-24T12:57:53.693Z,20.20
2022-09-24T13:00:38.473Z,21.50
2022-09-24T13:03:06.600Z,20.20
2022-09-24T13:05:35.032Z,20.20
2022-09-24T13:08:01.782Z,20.20
2022-09-24T13:10:35.801Z,20.20
2022-09-24T13:13:04.282Z,20.20
2022-09-24T13:15:35.810Z,20.20
2022-09-24T13:18:15.604Z,20.20
2022-09-24T13:20:47.568Z,20.20
2022-09-24T13:23:19.840Z,20.20
2022-09-24T13:25:55.658Z,20.20
2022-09-24T13:28:38.201Z,20.30
2022-09-24T13:31:21.372Z,20.20
2022-09-24T13:33:56.431Z,20.20
2022-09-24T13:36:29.526Z,20.20
2022-09-24T13:38:57.962Z,20.20
2022-09-24T13:41:24.632Z,20.20
2022-09-24T13:43:54.393Z,20.20
2022-09-24T13:46:21.166Z,20.30
2022-09-24T13:48:50.904Z,20.30
2022-09-24T13:51:18.954Z,20.40
2022-09-24T13:53:49.616Z,20.30
2022-09-24T13:56:17.886Z,20.50
2022-09-24T13:58:44.712Z,20.50
2022-09-24T14:01:30.849Z,20.50
2022-09-24T14:04:00.309Z,20.50
2022-09-24T14:06:37.862Z,20.50
2022-09-24T14:09:24.609Z,20.50
2022-09-24T14:11:52.449Z,20.50
2022-09-24T14:14:21.148Z,20.50
2022-09-24T14:16:47.890Z,20.40
2022-09-24T14:19:15.691Z,20.40
2022-09-24T14:21:46.153Z,20.40
2022-09-24T14:24:16.959Z,20.40
2022-09-24T14:26:46.606Z,20.40
2022-09-24T14:29:25.992Z,20.40
2022-09-24T14:31:55.303Z,20.40
2022-09-24T14:34:25.394Z,20.40
2022-09-24T14:36:53.565Z,20.40
2022-09-24T14:39:21.133Z,20.40
2022-09-24T14:41:47.831Z,20.40
2022-09-24T14:44:25.655Z,20.40
2022-09-24T14:46:54.279Z,20.40
2022-09-24T14:49:22.617Z,20.40
2022-09-24T14:51:55.480Z,20.40
2022-09-24T14:54:28.417Z,20.40
2022-09-24T14:56:55.540Z,20.40
2022-09-24T14:59:30.185Z,20.40
2022-09-24T15:02:18.154Z,20.40
2022-09-24T15:04:46.199Z,20.40
2022-09-24T15:07:17.807Z,20.40
2022-09-24T15:09:48.550Z,20.40
2022-09-24T15:12:26.603Z,20.40
2022-09-24T15:14:54.445Z,20.40
2022-09-24T15:17:22.409Z,20.30
2022-09-24T15:19:54.153Z,20.40
2022-09-24T15:22:22.662Z,20.40
2022-09-24T15:24:49.333Z,20.40
2022-09-24T15:27:19.402Z,20.40
2022-09-24T15:29:46.122Z,20.30
2022-09-24T15:32:15.112Z,20.40
2022-09-24T15:34:41.897Z,20.40
2022-09-24T15:37:09.618Z,20.40
2022-09-24T15:39:36.249Z,20.40
2022-09-24T15:42:02.895Z,20.40
2022-09-24T15:44:33.902Z,20.40
2022-09-24T15:47:00.939Z,20.40
2022-09-24T15:49:27.568Z,20.40
2022-09-24T15:51:56.420Z,20.40
2022-09-24T15:54:24.861Z,20.40
2022-09-24T15:56:54.655Z,20.40
2022-09-24T15:59:21.875Z,20.40
2022-09-24T16:01:49.424Z,20.40
2022-09-24T16:04:16.125Z,20.50
2022-09-24T16:06:43.312Z,20.40
2022-09-24T16:09:09.968Z,20.40
2022-09-24T16:11:36.697Z,20.40
2022-09-24T16:14:03.343Z,20.40
2022-09-24T16:16:30.031Z,20.40
2022-09-24T16:18:56.730Z,20.10
2022-09-24T16:21:23.518Z,20.40
2022-09-24T16:23:56.431Z,20.40
2022-09-24T16:26:23.676Z,20.40
2022-09-24T16:28:51.607Z,20.40
2022-09-24T16:31:19.260Z,20.40
2022-09-24T16:33:45.978Z,20.40
2022-09-24T16:36:12.995Z,20.40
2022-09-24T16:38:40.151Z,20.40
2022-09-24T16:41:07.159Z,20.40
2022-09-24T16:43:33.961Z,20.40
2022-09-24T16:46:04.963Z,20.40
2022-09-24T16:48:32.044Z,20.40
2022-09-24T16:51:17.419Z,20.40
2022-09-24T16:53:48.550Z,20.40
2022-09-24T16:56:16.828Z,20.40
2022-09-24T16:58:44.097Z,20.50
2022-09-24T17:01:12.344Z,20.40
2022-09-24T17:03:39.274Z,20.20
2022-09-24T17:06:06.229Z,20.40
2022-09-24T17:08:52.628Z,20.40
2022-09-24T17:11:19.841Z,20.50
2022-09-24T17:13:49.150Z,20.40
2022-09-24T17:16:15.963Z,20.40
2022-09-24T17:18:42.674Z,20.40
2022-09-24T17:21:11.241Z,20.30
2022-09-24T17:23:38.280Z,20.40
2022-09-24T17:26:09.276Z,20.40
2022-09-24T17:28:36.782Z,20.40
2022-09-24T17:31:03.792Z,20.40
2022-09-24T17:33:45.878Z,20.50
2022-09-24T17:36:14.673Z,20.40
2022-09-24T17:38:41.664Z,20.40
2022-09-24T17:41:09.907Z,20.40
2022-09-24T17:43:36.634Z,20.40
2022-09-24T17:46:12.880Z,20.30
2022-09-24T17:48:42.974Z,20.40
2022-09-24T17:51:11.528Z,20.40
2022-09-24T17:53:38.405Z,20.40
2022-09-24T17:56:06.007Z,20.40
2022-09-24T17:58:35.544Z,20.30
2022-09-24T18:01:03.656Z,20.20
2022-09-24T18:03:30.361Z,20.30
2022-09-24T18:06:04.349Z,20.40
2022-09-24T18:08:31.007Z,20.40
2022-09-24T18:11:05.065Z,20.50
2022-09-24T18:13:34.314Z,20.50
2022-09-24T18:16:08.360Z,20.60
2022-09-24T18:18:35.457Z,20.70
2022-09-24T18:21:02.447Z,20.70
2022-09-24T18:23:29.674Z,20.70
2022-09-24T18:25:56.628Z,20.70
2022-09-24T18:28:23.620Z,20.70
2022-09-24T18:30:50.438Z,20.60
2022-09-24T18:33:17.239Z,20.60
2022-09-24T18:35:44.227Z,20.60
2022-09-24T18:38:10.859Z,20.60
2022-09-24T18:40:38.280Z,20.60
2022-09-24T18:43:04.951Z,20.60
2022-09-24T18:45:31.627Z,20.60
2022-09-24T18:47:58.253Z,20.50
2022-09-24T18:50:26.174Z,20.50
2022-09-24T18:52:52.820Z,20.50
2022-09-24T18:55:19.641Z,20.50
2022-09-24T18:57:46.349Z,20.50
2022-09-24T19:00:33.247Z,20.50
2022-09-24T19:03:00.293Z,20.50
2022-09-24T19:05:27.231Z,20.50
2022-09-24T19:07:54.179Z,20.50
2022-09-24T19:10:21.006Z,20.50
2022-09-24T19:12:47.715Z,20.50
2022-09-24T19:15:14.444Z,20.50
2022-09-24T19:17:41.077Z,20.40
2022-09-24T19:20:07.916Z,20.50
2022-09-24T19:22:34.686Z,20.40
2022-09-24T19:25:01.347Z,20.50
2022-09-24T19:27:28.006Z,20.50
2022-09-24T19:29:54.751Z,20.50
2022-09-24T19:32:21.376Z,20.50
2022-09-24T19:34:49.579Z,20.40
2022-09-24T19:37:16.290Z,20.40
2022-09-24T19:39:43.734Z,20.40
2022-09-24T19:42:10.380Z,20.40
2022-09-24T19:44:37.035Z,20.40
2022-09-24T19:47:03.773Z,20.40
2022-09-24T19:49:30.514Z,20.40
2022-09-24T19:51:57.115Z,20.40
2022-09-24T19:54:23.761Z,20.40
2022-09-24T19:56:50.403Z,20.40
2022-09-24T19:59:17.063Z,20.40
2022-09-24T20:01:44.797Z,20.40
2022-09-24T20:04:11.693Z,20.40
2022-09-24T20:06:38.815Z,20.40
2022-09-24T20:09:06.187Z,20.40
2022-09-24T20:11:33.234Z,20.30
2022-09-24T20:14:00.376Z,20.30
2022-09-24T20:16:27.649Z,20.30
2022-09-24T20:18:57.518Z,20.30
2022-09-24T20:21:29.523Z,20.40
2022-09-24T20:23:57.871Z,20.30
2022-09-24T20:26:43.539Z,20.30
2022-09-24T20:29:16.553Z,20.30
2022-09-24T20:31:51.888Z,20.30
2022-09-24T20:34:19.780Z,20.30
2022-09-24T20:36:46.982Z,20.60
2022-09-24T20:39:13.722Z,20.30
2022-09-24T20:41:42.042Z,20.30
2022-09-24T20:44:09.530Z,20.30
2022-09-24T20:46:36.540Z,20.30
2022-09-24T20:49:03.248Z,20.30
2022-09-24T20:51:31.119Z,20.20
2022-09-24T20:53:58.733Z,20.20
2022-09-24T20:56:26.126Z,20.20
2022-09-24T20:58:53.371Z,20.20
2022-09-24T21:01:20.948Z,20.20
2022-09-24T21:03:50.097Z,20.20
2022-09-24T21:06:17.083Z,20.30
2022-09-24T21:08:44.545Z,20.20
2022-09-24T21:11:12.567Z,20.30
2022-09-24T21:13:44.759Z,20.20
2022-09-24T21:16:11.941Z,20.20
2022-09-24T21:18:40.689Z,20.20
2022-09-24T21:21:08.914Z,20.20
2022-09-24T21:23:38.126Z,20.20
2022-09-24T21:26:12.559Z,20.20
2022-09-24T21:28:39.668Z,20.20
2022-09-24T21:31:07.124Z,20.20
2022-09-24T21:33:34.387Z,20.20
2022-09-24T21:36:01.815Z,20.20
2022-09-24T21:38:28.695Z,20.20
2022-09-24T21:40:55.855Z,20.20
2022-09-24T21:43:23.655Z,20.20
2022-09-24T21:45:52.447Z,20.20
2022-09-24T21:48:19.776Z,20.20
2022-09-24T21:50:46.555Z,20.20
2022-09-24T21:53:13.207Z,20.20
2022-09-24T21:55:39.994Z,20.20
2022-09-24T21:58:06.787Z,20.20
2022-09-24T22:00:33.625Z,20.20
2022-09-24T22:03:00.318Z,20.10
2022-09-24T22:05:27.631Z,20.20
2022-09-24T22:07:55.126Z,20.20
2022-09-24T22:10:21.786Z,20.10
2022-09-24T22:12:48.499Z,20.10
2022-09-24T22:15:15.371Z,20.20
2022-09-24T22:17:42.431Z,20.10
2022-09-24T22:20:09.252Z,20.10
2022-09-24T22:22:35.985Z,20.10
2022-09-24T22:25:02.771Z,20.10
2022-09-24T22:27:29.450Z,20.10
2022-09-24T22:29:56.055Z,20.10
2022-09-24T22:32:22.680Z,20.10
2022-09-24T22:35:07.966Z,20.10
2022-09-24T22:37:34.628Z,20.10
2022-09-24T22:40:02.256Z,20.10
2022-09-24T22:42:28.900Z,20.10
2022-09-24T22:44:55.879Z,20.10
2022-09-24T22:47:22.516Z,20.10
2022-09-24T22:49:49.143Z,20.10
2022-09-24T22:52:15.821Z,20.10
2022-09-24T22:54:42.478Z,20.10
2022-09-24T22:57:09.234Z,20.10
2022-09-24T22:59:35.967Z,20.10
2022-09-24T23:02:02.646Z,20.10
2022-09-24T23:04:29.753Z,20.10
2022-09-24T23:06:56.355Z,20.10
2022-09-24T23:09:23.020Z,20.10
2022-09-24T23:11:49.722Z,20.10
2022-09-24T23:14:16.459Z,20.10
2022-09-24T23:16:43.570Z,20.10
2022-09-24T23:19:17.686Z,20.10
2022-09-24T23:21:45.081Z,20.10
2022-09-24T23:24:17.960Z,20.00
2022-09-24T23:26:45.129Z,20.10
2022-09-24T23:29:12.530Z,20.00
2022-09-24T23:31:39.273Z,20.00
2022-09-24T23:34:07.617Z,20.00
2022-09-24T23:36:34.763Z,20.00
2022-09-24T23:39:01.985Z,20.00
2022-09-24T23:41:29.958Z,20.00
2022-09-24T23:43:56.790Z,20.00
2022-09-24T23:46:24.126Z,20.00
2022-09-24T23:48:50.851Z,20.00
2022-09-24T23:51:17.517Z,20.00
2022-09-24T23:53:44.158Z,20.00
2022-09-24T23:56:11.105Z,20.00
2022-09-24T23:58:37.708Z,20.00
